createdAt,value
2023-03-02T00:02:09.418Z,25.17
2023-03-02T00:05:14.096Z,25.77
2023-03-02T00:08:16.499Z,22.65
2023-03-02T00:11:21.379Z,24.13
2023-03-02T00:14:23.028Z,25.10
2023-03-02T00:17:27.962Z,21.95
2023-03-02T00:20:32.517Z,24.02
2023-03-02T00:23:38.069Z,22.63
2023-03-02T00:26:43.523Z,20.83
2023-03-02T00:29:45.606Z,24.95
2023-03-02T00:32:50.197Z,24.20
2023-03-02T00:35:55.554Z,28.50
2023-03-02T00:39:01.091Z,22.45
2023-03-02T00:42:02.800Z,22.48
2023-03-02T00:45:05.468Z,23.35
2023-03-02T00:48:07.293Z,21.35
2023-03-02T00:51:12.358Z,20.58
2023-03-02T00:54:16.972Z,23.38
2023-03-02T00:57:18.579Z,19.13
2023-03-02T01:00:21.013Z,21.70
2023-03-02T01:03:26.372Z,21.27
2023-03-02T01:06:32.537Z,18.47
2023-03-02T01:09:34.469Z,21.90
2023-03-02T01:12:36.098Z,21.25
2023-03-02T01:15:37.808Z,21.55
2023-03-02T01:18:39.555Z,20.80
2023-03-02T01:21:44.995Z,23.17
2023-03-02T01:24:50.521Z,23.67
2023-03-02T01:27:52.139Z,20.50
2023-03-02T01:30:58.830Z,22.48
2023-03-02T01:34:00.411Z,19.98
2023-03-02T01:37:05.358Z,22.07
2023-03-02T01:40:11.776Z,22.83
2023-03-02T01:43:14.672Z,20.42
2023-03-02T01:46:27.307Z,20.98
2023-03-02T01:49:28.932Z,21.40
2023-03-02T01:52:31.961Z,21.05
2023-03-02T01:55:33.551Z,17.67
2023-03-02T01:58:35.522Z,19.10
2023-03-02T02:01:38.319Z,19.50
2023-03-02T02:04:44.242Z,21.13
2023-03-02T02:07:45.964Z,19.53
2023-03-02T02:10:51.612Z,18.70
2023-03-02T02:13:55.927Z,18.98
2023-03-02T02:16:57.613Z,17.58
2023-03-02T02:20:27.088Z,22.25
2023-03-02T02:23:57.783Z,20.95
2023-03-02T02:26:59.453Z,21.00
2023-03-02T02:30:02.858Z,20.23
2023-03-02T02:33:04.750Z,19.73
2023-03-02T02:36:08.299Z,18.65
2023-03-02T02:39:18.260Z,18.43
2023-03-02T02:42:25.550Z,19.45
2023-03-02T02:45:27.403Z,17.70
2023-03-02T02:48:35.734Z,18.63
2023-03-02T02:51:40.297Z,20.65
2023-03-02T02:54:42.046Z,20.10
2023-03-02T02:57:47.721Z,17.77
2023-03-02T03:00:49.529Z,19.40
2023-03-02T03:03:58.514Z,21.27
2023-03-02T03:07:08.747Z,19.27
2023-03-02T03:10:21.488Z,18.97
2023-03-02T03:13:23.143Z,20.77
2023-03-02T03:16:28.980Z,22.67
2023-03-02T03:19:32.104Z,18.58
2023-03-02T03:22:38.148Z,20.98
2023-03-02T03:25:43.636Z,21.70
2023-03-02T03:28:45.224Z,16.15
2023-03-02T03:31:46.836Z,18.90
2023-03-02T03:34:52.998Z,19.10
2023-03-02T03:37:54.567Z,20.90
2023-03-02T03:40:59.538Z,18.37
2023-03-02T03:44:01.235Z,20.00
2023-03-02T03:47:02.776Z,18.65
2023-03-02T03:50:08.850Z,17.10
2023-03-02T03:53:13.471Z,20.17
2023-03-02T03:56:15.068Z,20.25
2023-03-02T03:59:26.295Z,18.48
2023-03-02T04:02:28.000Z,17.30
2023-03-02T04:05:31.600Z,20.58
2023-03-02T04:08:36.536Z,17.42
2023-03-02T04:11:43.888Z,17.63
2023-03-02T04:14:45.647Z,20.17
2023-03-02T04:17:50.367Z,22.45
2023-03-02T04:20:51.967Z,20.63
2023-03-02T04:23:57.800Z,17.67
2023-03-02T04:27:02.423Z,16.85
2023-03-02T04:30:05.917Z,18.80
2023-03-02T04:33:11.723Z,22.63
2023-03-02T04:36:16.258Z,18.45
2023-03-02T04:39:18.176Z,18.40
2023-03-02T04:42:23.692Z,17.00
2023-03-02T04:45:28.319Z,20.73
2023-03-02T04:48:30.108Z,18.17
2023-03-02T04:51:40.220Z,18.05
2023-03-02T04:54:45.761Z,18.63
2023-03-02T04:57:47.403Z,16.60
2023-03-02T05:00:52.272Z,17.70
2023-03-02T05:03:53.912Z,18.13
2023-03-02T05:06:55.577Z,19.15
2023-03-02T05:10:00.732Z,22.27
2023-03-02T05:13:06.259Z,19.30
2023-03-02T05:16:07.965Z,16.85
2023-03-02T05:19:13.652Z,16.70
2023-03-02T05:22:18.260Z,17.27
2023-03-02T05:25:19.875Z,17.13
2023-03-02T05:28:24.804Z,20.88
2023-03-02T05:31:35.870Z,16.85
2023-03-02T05:34:37.594Z,16.37
2023-03-02T05:37:47.654Z,21.38
2023-03-02T05:40:52.248Z,17.15
2023-03-02T05:43:53.976Z,16.53
2023-03-02T05:46:58.838Z,16.83
2023-03-02T05:50:00.493Z,17.67
2023-03-02T05:53:02.648Z,19.80
2023-03-02T05:56:04.598Z,21.30
2023-03-02T05:59:06.291Z,16.63
2023-03-02T06:02:07.967Z,18.63
2023-03-02T06:05:11.884Z,18.03
2023-03-02T06:08:13.589Z,23.58
2023-03-02T06:11:15.239Z,20.38
2023-03-02T06:14:16.865Z,16.93
2023-03-02T06:17:18.551Z,20.70
2023-03-02T06:20:20.260Z,19.08
2023-03-02T06:23:21.990Z,18.85
2023-03-02T06:26:23.689Z,19.75
2023-03-02T06:29:25.354Z,17.05
2023-03-02T06:32:27.316Z,16.50
2023-03-02T06:35:29.242Z,16.00
2023-03-02T06:38:31.069Z,17.67
2023-03-02T06:41:33.947Z,15.85
2023-03-02T06:44:35.860Z,16.10
2023-03-02T06:47:37.621Z,19.75
2023-03-02T06:50:39.468Z,19.00
2023-03-02T06:53:41.124Z,17.15
2023-03-02T06:56:42.793Z,15.30
2023-03-02T06:59:44.675Z,18.27
2023-03-02T07:02:46.886Z,17.73
2023-03-02T07:05:49.208Z,17.47
2023-03-02T07:08:50.969Z,15.70
2023-03-02T07:11:53.202Z,16.67
2023-03-02T07:14:54.859Z,17.33
2023-03-02T07:17:56.449Z,19.27
2023-03-02T07:20:58.080Z,18.05
2023-03-02T07:23:59.920Z,19.30
2023-03-02T07:27:01.690Z,17.45
2023-03-02T07:30:04.385Z,19.65
2023-03-02T07:33:06.078Z,18.50
2023-03-02T07:36:08.205Z,20.33
2023-03-02T07:39:10.075Z,18.85
2023-03-02T07:42:12.482Z,18.17
2023-03-02T07:45:14.269Z,23.20
2023-03-02T07:48:16.045Z,20.97
2023-03-02T07:51:17.744Z,19.85
2023-03-02T07:54:19.362Z,19.10
2023-03-02T07:57:21.008Z,18.27
2023-03-02T08:00:23.004Z,19.87
2023-03-02T08:03:24.660Z,19.13
2023-03-02T08:06:26.400Z,20.58
2023-03-02T08:09:28.029Z,18.63
2023-03-02T08:12:29.761Z,19.47
2023-03-02T08:15:31.488Z,19.67
2023-03-02T08:18:33.583Z,19.65
2023-03-02T08:21:35.424Z,17.08
2023-03-02T08:24:37.386Z,19.30
2023-03-02T08:27:40.379Z,18.27
2023-03-02T08:30:41.950Z,16.80
2023-03-02T08:33:43.693Z,18.65
2023-03-02T08:36:45.330Z,17.65
2023-03-02T08:39:47.220Z,19.35
2023-03-02T08:42:49.951Z,16.93
2023-03-02T08:45:52.997Z,19.23
2023-03-02T08:48:54.983Z,18.40
2023-03-02T08:51:57.235Z,17.65
2023-03-02T08:54:58.970Z,18.67
2023-03-02T08:58:00.673Z,17.90
2023-03-02T09:01:02.711Z,17.67
2023-03-02T09:04:05.773Z,17.25
2023-03-02T09:07:07.574Z,16.70
2023-03-02T09:10:09.716Z,17.48
2023-03-02T09:13:11.585Z,17.23
2023-03-02T09:16:13.427Z,19.27
2023-03-02T09:19:15.128Z,16.17
2023-03-02T09:22:16.785Z,16.92
2023-03-02T09:25:22.848Z,17.10
2023-03-02T09:28:24.850Z,16.10
2023-03-02T09:31:29.071Z,20.03
2023-03-02T09:34:31.687Z,15.93
2023-03-02T09:37:35.254Z,18.10
2023-03-02T09:40:37.232Z,16.80
2023-03-02T09:44:00.144Z,15.57
2023-03-02T09:47:34.849Z,16.80
2023-03-02T09:50:39.810Z,16.92
2023-03-02T09:53:46.846Z,16.17
2023-03-02T09:56:57.940Z,17.38
2023-03-02T10:00:24.990Z,15.50
2023-03-02T10:03:40.954Z,15.20
2023-03-02T10:06:42.752Z,16.98
2023-03-02T10:09:44.484Z,18.20
2023-03-02T10:13:13.860Z,18.35
2023-03-02T10:16:24.744Z,17.97
2023-03-02T10:19:32.420Z,18.40
2023-03-02T10:22:36.937Z,18.98
2023-03-02T10:25:38.684Z,19.13
2023-03-02T10:28:47.352Z,17.50
2023-03-02T10:31:52.980Z,20.63
2023-03-02T10:34:54.680Z,21.70
2023-03-02T10:38:17.490Z,21.20
2023-03-02T10:41:32.770Z,18.10
2023-03-02T10:44:40.040Z,17.63
2023-03-02T10:47:42.023Z,18.20
2023-03-02T10:50:44.423Z,17.20
2023-03-02T10:53:46.043Z,18.52
2023-03-02T10:56:49.876Z,17.42
2023-03-02T10:59:51.841Z,17.20
2023-03-02T11:02:55.195Z,17.90
2023-03-02T11:05:57.670Z,18.20
2023-03-02T11:09:04.756Z,17.45
2023-03-02T11:12:15.452Z,17.05
2023-03-02T11:15:50.672Z,17.20
2023-03-02T11:19:00.602Z,16.33
2023-03-02T11:22:37.336Z,15.87
2023-03-02T11:25:40.644Z,18.90
2023-03-02T11:28:47.213Z,16.70
2023-03-02T11:31:51.061Z,18.60
2023-03-02T11:35:03.169Z,17.67
2023-03-02T11:38:24.984Z,16.90
2023-03-02T11:41:31.554Z,18.80
2023-03-02T11:44:33.435Z,17.35
2023-03-02T11:47:35.640Z,17.83
2023-03-02T11:50:42.908Z,17.83
2023-03-02T11:54:19.899Z,18.20
2023-03-02T11:57:25.755Z,15.18
2023-03-02T12:00:41.576Z,16.15
2023-03-02T12:03:44.939Z,17.52
2023-03-02T12:06:46.617Z,16.40
2023-03-02T12:10:00.801Z,21.27
2023-03-02T12:13:23.612Z,18.42
2023-03-02T12:16:41.204Z,16.42
2023-03-02T12:19:45.113Z,16.65
2023-03-02T12:22:46.715Z,18.60
2023-03-02T12:25:51.557Z,17.20
2023-03-02T12:29:00.885Z,17.13
2023-03-02T12:32:18.559Z,16.20
2023-03-02T12:35:20.229Z,17.30
2023-03-02T12:38:33.835Z,17.90
2023-03-02T12:41:55.261Z,17.87
2023-03-02T12:45:24.837Z,17.35
2023-03-02T12:48:46.722Z,18.17
2023-03-02T12:52:00.372Z,16.90
2023-03-02T12:55:22.340Z,18.53
2023-03-02T12:58:27.713Z,15.03
2023-03-02T13:01:31.041Z,18.88
2023-03-02T13:04:32.746Z,15.60
2023-03-02T13:07:47.280Z,18.88
2023-03-02T13:10:56.899Z,18.03
2023-03-02T13:14:02.905Z,18.83
2023-03-02T13:17:04.930Z,16.83
2023-03-02T13:20:07.041Z,16.02
2023-03-02T13:23:12.742Z,17.23
2023-03-02T13:26:36.287Z,15.80
2023-03-02T13:29:37.916Z,17.43
2023-03-02T13:32:40.972Z,18.60
2023-03-02T13:35:45.930Z,15.65
2023-03-02T13:38:59.518Z,18.27
2023-03-02T13:42:02.498Z,17.00
2023-03-02T13:45:28.742Z,17.27
2023-03-02T13:48:30.760Z,16.17
2023-03-02T13:51:34.102Z,16.33
2023-03-02T13:54:36.185Z,15.52
2023-03-02T13:57:37.824Z,16.83
2023-03-02T14:00:40.238Z,16.37
2023-03-02T14:03:41.842Z,17.35
2023-03-02T14:06:44.112Z,17.60
2023-03-02T14:09:45.730Z,19.15
2023-03-02T14:12:54.208Z,16.83
2023-03-02T14:15:55.855Z,17.23
2023-03-02T14:18:57.702Z,19.05
2023-03-02T14:21:59.436Z,16.85
2023-03-02T14:25:01.063Z,19.30
2023-03-02T14:28:03.229Z,21.13
2023-03-02T14:31:04.995Z,22.73
2023-03-02T14:34:06.615Z,20.23
2023-03-02T14:37:11.541Z,21.67
2023-03-02T14:40:31.282Z,19.58
2023-03-02T14:43:33.047Z,21.80
2023-03-02T14:46:34.958Z,24.03
2023-03-02T14:49:37.220Z,18.05
2023-03-02T14:52:43.452Z,18.23
2023-03-02T14:55:45.121Z,20.48
2023-03-02T14:58:46.820Z,20.20
2023-03-02T15:01:48.665Z,18.83
2023-03-02T15:04:54.979Z,24.27
2023-03-02T15:07:58.788Z,19.02
2023-03-02T15:11:00.551Z,21.00
2023-03-02T15:14:02.201Z,17.73
2023-03-02T15:17:04.085Z,20.27
2023-03-02T15:20:06.390Z,18.85
2023-03-02T15:23:08.318Z,19.88
2023-03-02T15:26:10.469Z,21.33
2023-03-02T15:29:12.223Z,22.20
2023-03-02T15:32:13.994Z,23.63
2023-03-02T15:35:15.797Z,23.52
2023-03-02T15:38:17.457Z,24.27
2023-03-02T15:41:19.121Z,23.23
2023-03-02T15:44:22.985Z,22.80
2023-03-02T15:47:28.531Z,24.63
2023-03-02T15:50:33.098Z,18.95
2023-03-02T15:53:37.930Z,20.00
2023-03-02T15:56:44.251Z,20.27
2023-03-02T15:59:47.023Z,18.40
2023-03-02T16:02:49.715Z,19.50
2023-03-02T16:05:55.323Z,22.13
2023-03-02T16:08:56.899Z,17.83
2023-03-02T16:11:58.564Z,18.15
2023-03-02T16:15:00.213Z,18.90
2023-03-02T16:18:01.839Z,20.58
2023-03-02T16:21:03.655Z,25.42
2023-03-02T16:24:05.918Z,18.30
2023-03-02T16:27:07.618Z,23.73
2023-03-02T16:30:09.873Z,20.83
2023-03-02T16:33:16.638Z,26.55
2023-03-02T16:36:22.554Z,28.42
2023-03-02T16:39:24.525Z,20.98
2023-03-02T16:42:26.415Z,21.30
2023-03-02T16:45:28.170Z,19.40
2023-03-02T16:48:29.778Z,33.80
2023-03-02T16:51:31.571Z,30.83
2023-03-02T16:54:33.227Z,27.92
2023-03-02T16:57:34.862Z,22.92
2023-03-02T17:00:36.646Z,18.20
2023-03-02T17:03:38.237Z,18.08
2023-03-02T17:06:59.609Z,13.07
2023-03-02T17:10:02.111Z,15.95
2023-03-02T17:13:04.122Z,14.33
2023-03-02T17:16:08.765Z,15.50
2023-03-02T17:19:10.628Z,17.02
2023-03-02T17:22:16.361Z,16.52
2023-03-02T17:25:18.275Z,13.25
2023-03-02T17:28:22.890Z,15.63
2023-03-02T17:31:25.055Z,17.03
2023-03-02T17:34:31.163Z,19.75
2023-03-02T17:37:40.337Z,22.08
2023-03-02T17:40:45.936Z,24.17
2023-03-02T17:43:47.569Z,25.07
2023-03-02T17:46:49.244Z,23.30
2023-03-02T17:49:54.311Z,25.20
2023-03-02T17:53:00.717Z,23.50
2023-03-02T17:56:02.427Z,22.10
2023-03-02T17:59:05.203Z,22.90
2023-03-02T18:02:06.833Z,19.57
2023-03-02T18:05:10.176Z,20.33
2023-03-02T18:08:15.666Z,23.73
2023-03-02T18:11:22.067Z,21.17
2023-03-02T18:14:28.395Z,22.77
2023-03-02T18:17:30.290Z,32.80
2023-03-02T18:20:35.032Z,33.47
2023-03-02T18:23:36.859Z,31.30
2023-03-02T18:26:38.524Z,30.30
2023-03-02T18:29:40.357Z,22.57
2023-03-02T18:32:41.968Z,23.07
2023-03-02T18:35:46.327Z,25.50
2023-03-02T18:38:50.992Z,19.33
2023-03-02T18:41:53.287Z,23.13
2023-03-02T18:44:58.459Z,23.33
2023-03-02T18:48:00.270Z,23.33
2023-03-02T18:51:02.164Z,22.52
2023-03-02T18:54:08.736Z,24.90
2023-03-02T18:57:10.380Z,20.88
2023-03-02T19:00:26.607Z,27.10
2023-03-02T19:03:29.220Z,23.77
2023-03-02T19:06:34.349Z,23.33
2023-03-02T19:09:36.124Z,23.52
2023-03-02T19:12:37.828Z,23.17
2023-03-02T19:15:40.000Z,27.40
2023-03-02T19:18:41.627Z,27.38
2023-03-02T19:21:45.406Z,23.45
2023-03-02T19:24:51.231Z,27.30
2023-03-02T19:27:53.007Z,29.73
2023-03-02T19:30:54.681Z,27.30
2023-03-02T19:33:56.410Z,27.40
2023-03-02T19:36:57.995Z,26.40
2023-03-02T19:39:59.626Z,28.80
2023-03-02T19:43:01.649Z,28.30
2023-03-02T19:46:04.283Z,30.45
2023-03-02T19:49:05.943Z,27.77
2023-03-02T19:52:12.074Z,25.23
2023-03-02T19:55:14.304Z,26.77
2023-03-02T19:58:17.501Z,27.33
2023-03-02T20:01:24.912Z,25.73
2023-03-02T20:04:26.825Z,23.38
2023-03-02T20:07:31.538Z,23.83
2023-03-02T20:10:39.735Z,23.73
2023-03-02T20:13:41.338Z,24.50
2023-03-02T20:16:46.292Z,25.92
2023-03-02T20:19:47.952Z,23.53
2023-03-02T20:22:53.680Z,23.13
2023-03-02T20:25:55.722Z,21.42
2023-03-02T20:29:01.103Z,20.65
2023-03-02T20:32:04.149Z,23.07
2023-03-02T20:35:05.903Z,22.70
2023-03-02T20:38:13.106Z,21.73
2023-03-02T20:41:19.523Z,22.55
2023-03-02T20:44:24.180Z,22.98
2023-03-02T20:47:25.764Z,20.60
2023-03-02T20:50:29.030Z,23.77
2023-03-02T20:53:34.406Z,22.80
2023-03-02T20:56:35.969Z,19.95
2023-03-02T20:59:41.819Z,22.10
2023-03-02T21:02:44.320Z,24.60
2023-03-02T21:05:47.407Z,26.05
2023-03-02T21:08:52.076Z,33.85
2023-03-02T21:11:57.561Z,38.60
2023-03-02T21:14:59.442Z,41.00
2023-03-02T21:18:01.392Z,32.67
2023-03-02T21:21:03.129Z,30.88
2023-03-02T21:24:08.832Z,33.13
2023-03-02T21:27:10.438Z,31.20
2023-03-02T21:30:20.767Z,27.95
2023-03-02T21:33:22.403Z,24.55
2023-03-02T21:36:27.301Z,22.95
2023-03-02T21:39:28.999Z,27.97
2023-03-02T21:42:34.729Z,25.48
2023-03-02T21:45:39.344Z,23.90
2023-03-02T21:48:40.945Z,22.80
2023-03-02T21:51:42.581Z,21.83
2023-03-02T21:54:44.141Z,22.90
2023-03-02T21:57:49.663Z,23.10
2023-03-02T22:00:54.293Z,22.15
2023-03-02T22:03:56.138Z,23.08
2023-03-02T22:06:57.737Z,21.57
2023-03-02T22:10:03.664Z,23.37
2023-03-02T22:13:24.703Z,24.75
2023-03-02T22:16:37.298Z,24.88
2023-03-02T22:19:39.070Z,22.17
2023-03-02T22:22:40.702Z,20.93
2023-03-02T22:25:43.546Z,21.05
2023-03-02T22:28:45.195Z,20.10
2023-03-02T22:31:48.190Z,23.20
2023-03-02T22:34:51.669Z,22.17
2023-03-02T22:38:05.898Z,23.27
2023-03-02T22:41:13.194Z,24.55
2023-03-02T22:44:15.206Z,20.67
2023-03-02T22:47:20.975Z,24.25
2023-03-02T22:50:29.861Z,22.23
2023-03-02T22:53:36.202Z,21.65
2023-03-02T22:56:41.347Z,25.27
2023-03-02T22:59:42.949Z,22.65
2023-03-02T23:02:45.004Z,22.50
2023-03-02T23:05:49.135Z,24.53
2023-03-02T23:08:57.423Z,22.67
2023-03-02T23:12:01.565Z,23.42
2023-03-02T23:15:12.033Z,23.60
2023-03-02T23:18:16.669Z,21.67
2023-03-02T23:21:28.573Z,21.92
2023-03-02T23:24:30.289Z,23.30
2023-03-02T23:27:31.912Z,24.30
2023-03-02T23:30:34.790Z,28.33
2023-03-02T23:33:36.458Z,22.60
2023-03-02T23:36:39.750Z,28.30
2023-03-02T23:39:46.085Z,28.60
2023-03-02T23:42:52.656Z,29.38
2023-03-02T23:45:57.395Z,28.83
2023-03-02T23:48:58.987Z,32.58
2023-03-02T23:52:00.624Z,30.55
2023-03-02T23:55:06.649Z,30.70
2023-03-02T23:58:11.230Z,31.70
